.
WxDataArchive / Data Records for 2012-09-20
2012-09-19 September 2012 2012-09-21

Data Records for Thursday, 20 September 2012

Time	Temp	Chill	HIndex	Humid	Dewpt	 Wind 	HiWind	WindDir	Rain 	Barom 
-----	----	-----	------	-----	-----	------	------	-------	-----	----- 
00:00	56.3	56.3	56.3	52	38.9	0	5	90	0.00	29.989 
00:05	56.3	56.3	56.3	52	38.9	0	2	90	0.00	29.989 
00:10	56.3	56.3	56.3	52	38.9	0	3	90	0.00	29.989 
00:15	56.2	56.2	56.2	53	39.3	0	2	338	0.00	29.985 
00:20	56.0	56.0	56.0	53	39.1	0	4	292	0.00	29.985 
00:25	55.9	55.9	55.9	54	39.5	0	1	292	0.00	29.985 
00:30	55.7	55.7	55.7	54	39.3	0	1	292	0.00	29.985 
00:35	55.6	55.6	55.6	54	39.2	0	3	68	0.00	29.985 
00:40	55.6	55.6	55.6	54	39.2	0	1	315	0.00	29.985 
00:45	55.3	55.3	55.3	55	39.4	0	1	270	0.00	29.987 
00:50	55.3	55.3	55.3	55	39.4	0	2	270	0.00	29.987 
00:55	55.1	55.1	55.1	55	39.2	0	2	270	0.00	29.987 
01:00	55.1	55.1	55.1	56	39.7	0	2	270	0.00	29.985 
01:05	55.0	55.0	55.0	56	39.6	0	4	270	0.00	29.985 
01:10	54.8	54.8	54.8	56	39.4	0	2	270	0.00	29.985 
01:15	54.7	54.7	54.7	57	39.8	0	1	248	0.00	29.985 
01:20	54.5	54.5	54.5	57	39.6	0	1	248	0.00	29.985 
01:25	54.4	54.4	54.4	58	39.9	0	1	270	0.00	29.985 
01:30	54.2	54.2	54.2	58	39.7	0	2	270	0.00	29.986 
01:35	54.2	54.2	54.2	58	39.7	0	1	270	0.00	29.986 
01:40	54.2	54.2	54.2	58	39.7	0	1	270	0.00	29.986 
01:45	54.1	54.1	54.1	58	39.7	0	1	270	0.00	29.989 
01:50	54.2	54.2	54.2	58	39.7	0	1	270	0.00	29.989 
01:55	54.2	54.2	54.2	58	39.7	0	1	270	0.00	29.989 
02:00	54.1	54.1	54.1	58	39.7	0	1	270	0.00	29.983 
02:05	54.1	54.1	54.1	58	39.7	0	1	270	0.00	29.983 
02:10	54.1	54.1	54.1	59	40.1	0	1	270	0.00	29.983 
02:15	54.1	54.1	54.1	59	40.1	0	1	270	0.00	29.974 
02:20	53.9	53.9	53.9	59	39.9	0	0	---	0.00	29.974 
02:25	54.1	54.1	54.1	59	40.1	0	2	90	0.00	29.974 
02:30	54.2	54.2	54.2	58	39.7	0	1	292	0.00	29.975 
02:35	54.4	54.4	54.4	58	39.9	0	2	292	0.00	29.975 
02:40	54.4	54.4	54.4	58	39.9	0	2	292	0.00	29.975 
02:45	54.2	54.2	54.2	58	39.7	0	1	270	0.00	29.974 
02:50	54.1	54.1	54.1	59	40.1	0	1	225	0.00	29.974 
02:55	54.1	54.1	54.1	59	40.1	0	5	270	0.00	29.974 
03:00	53.9	53.9	53.9	59	39.9	0	3	180	0.00	29.972 
03:05	53.8	53.8	53.8	59	39.8	0	2	270	0.00	29.972 
03:10	53.8	53.8	53.8	59	39.8	0	3	270	0.00	29.972 
03:15	53.8	53.8	53.8	59	39.8	0	1	45	0.00	29.957 
03:20	53.6	53.6	53.6	60	40.1	0	3	45	0.00	29.957 
03:25	53.6	53.6	53.6	59	39.6	0	2	45	0.00	29.957 
03:30	53.6	53.6	53.6	59	39.6	0	1	45	0.00	29.949 
03:35	53.6	53.6	53.6	59	39.6	0	3	338	0.00	29.949 
03:40	53.6	53.6	53.6	59	39.6	0	4	248	0.00	29.949 
03:45	53.6	53.6	53.6	59	39.6	0	2	315	0.00	29.951 
03:50	53.6	53.6	53.6	59	39.6	0	2	22	0.00	29.951 
03:55	53.6	53.6	53.6	59	39.6	0	2	225	0.00	29.951 
04:00	53.8	53.8	53.8	59	39.8	0	3	225	0.00	29.940 
04:05	53.8	53.8	53.8	60	40.2	0	1	270	0.00	29.940 
04:10	53.8	53.8	53.8	60	40.2	0	4	315	0.00	29.940 
04:15	53.8	53.8	53.8	60	40.2	0	2	248	0.00	29.931 
04:20	53.8	53.8	53.8	60	40.2	0	2	338	0.00	29.931 
04:25	53.8	53.8	53.8	60	40.2	0	2	315	0.00	29.931 
04:30	53.8	53.8	53.8	60	40.2	0	3	315	0.00	29.932 
04:35	53.9	53.9	53.9	59	39.9	1	4	248	0.00	29.932 
04:40	54.1	54.1	54.1	59	40.1	1	3	248	0.00	29.932 
04:45	54.2	54.2	54.2	59	40.2	1	5	248	0.00	29.926 
04:50	54.2	54.2	54.2	59	40.2	1	2	315	0.00	29.926 
04:55	54.4	54.4	54.4	59	40.4	1	3	292	0.00	29.926 
05:00	54.4	54.4	54.4	59	40.4	0	2	292	0.00	29.927 
05:05	54.4	54.4	54.4	60	40.8	0	4	68	0.00	29.927 
05:10	54.4	54.4	54.4	59	40.4	0	4	68	0.00	29.927 
05:15	54.4	54.4	54.4	59	40.4	0	2	225	0.00	29.923 
05:20	54.4	54.4	54.4	59	40.4	0	3	248	0.00	29.923 
05:25	54.5	54.5	54.5	59	40.5	0	2	248	0.00	29.923 
05:30	54.7	54.7	54.7	59	40.7	1	3	270	0.00	29.914 
05:35	54.7	54.7	54.7	59	40.7	0	1	270	0.00	29.914 
05:40	54.8	54.8	54.8	58	40.3	1	3	248	0.00	29.914 
05:45	55.0	55.0	55.0	58	40.5	0	4	248	0.00	29.911 
05:50	55.1	55.1	55.1	58	40.6	1	4	248	0.00	29.911 
05:55	55.3	55.3	55.3	58	40.8	0	3	112	0.00	29.911 
06:00	55.4	55.4	55.4	58	40.9	0	4	292	0.00	29.908 
06:05	55.4	55.4	55.4	58	40.9	0	2	315	0.00	29.908 
06:10	55.4	55.4	55.4	57	40.4	0	3	315	0.00	29.908 
06:15	55.4	55.4	55.4	58	40.9	1	3	270	0.00	29.909 
06:20	55.4	55.4	55.4	57	40.4	1	4	225	0.00	29.909 
06:25	55.6	55.6	55.6	57	40.6	0	2	248	0.00	29.909 
06:30	55.6	55.6	55.6	57	40.6	0	3	248	0.00	29.911 
06:35	55.6	55.6	55.6	58	41.1	1	3	248	0.00	29.911 
06:40	55.6	55.6	55.6	58	41.1	1	3	248	0.00	29.911 
06:45	55.6	55.6	55.6	58	41.1	0	3	248	0.00	29.905 
06:50	55.4	55.4	55.4	58	40.9	1	3	248	0.00	29.905 
06:55	55.4	55.4	55.4	58	40.9	0	1	248	0.00	29.905 
07:00	55.4	55.4	55.4	58	40.9	0	2	248	0.00	29.903 
07:05	55.4	55.4	55.4	58	40.9	0	2	248	0.00	29.903 
07:10	55.4	55.4	55.4	58	40.9	1	3	248	0.00	29.903 
07:15	55.6	55.6	55.6	58	41.1	0	2	248	0.00	29.903 
07:20	55.6	55.6	55.6	58	41.1	0	2	248	0.00	29.903 
07:25	55.6	55.6	55.6	58	41.1	0	3	248	0.00	29.903 
07:30	55.7	55.7	55.7	58	41.2	0	3	248	0.00	29.902 
07:35	55.7	55.7	55.7	58	41.2	0	2	248	0.00	29.902 
07:40	55.7	55.7	55.7	58	41.2	0	2	248	0.00	29.902 
07:45	55.9	55.9	55.9	58	41.3	0	2	112	0.00	29.901 
07:50	56.0	56.0	56.0	58	41.4	0	2	112	0.00	29.901 
07:55	56.2	56.2	56.2	58	41.6	0	3	112	0.00	29.901 
08:00	56.5	56.5	56.5	58	41.9	0	2	225	0.00	29.899 
08:05	56.6	56.6	56.6	58	42.0	0	3	225	0.00	29.899 
08:10	56.7	56.7	56.7	57	41.6	0	2	225	0.00	29.899 
08:15	56.9	56.9	56.9	57	41.8	0	2	315	0.00	29.903 
08:20	57.0	57.0	57.0	57	41.9	0	2	248	0.00	29.903 
08:25	57.3	57.3	57.3	56	41.7	1	3	248	0.00	29.903 
08:30	57.5	57.5	57.5	57	42.4	0	3	248	0.00	29.906 
08:35	57.6	57.6	57.6	57	42.5	1	4	248	0.00	29.906 
08:40	57.8	57.8	57.8	56	42.2	1	2	248	0.00	29.906 
08:45	58.0	58.0	58.0	56	42.4	1	3	248	0.00	29.909 
08:50	58.3	58.3	58.3	56	42.7	1	3	248	0.00	29.909 
08:55	58.4	58.4	58.4	55	42.3	1	4	248	0.00	29.909 
09:00	58.7	58.7	58.7	56	43.0	0	2	270	0.00	29.909 
09:05	58.9	58.9	58.9	55	42.8	1	3	248	0.00	29.909 
09:10	58.9	58.9	58.9	55	42.8	1	4	270	0.00	29.909 
09:15	58.9	58.9	58.9	55	42.8	1	3	248	0.00	29.904 
09:20	58.9	58.9	58.9	56	43.2	1	4	248	0.00	29.904 
09:25	59.0	59.0	59.0	55	42.9	1	3	248	0.00	29.904 
09:30	59.2	59.2	59.2	56	43.5	1	4	270	0.00	29.900 
09:35	59.5	59.5	59.5	55	43.3	1	4	270	0.00	29.900 
09:40	59.6	59.6	59.6	55	43.4	1	4	225	0.00	29.900 
09:45	59.8	59.8	59.8	56	44.1	1	3	248	0.00	29.897 
09:50	59.8	59.8	59.8	55	43.6	1	3	248	0.00	29.897 
09:55	59.6	59.6	59.6	56	43.9	2	5	270	0.00	29.897 
10:00	59.5	59.5	59.5	55	43.3	1	3	248	0.00	29.909 
10:05	59.5	59.5	59.5	56	43.8	1	3	315	0.00	29.909 
10:10	59.3	59.3	59.3	57	44.1	1	3	315	0.00	29.909 
10:15	59.3	59.3	59.3	58	44.5	1	2	315	0.00	29.913 
10:20	59.0	59.0	59.0	59	44.7	1	3	248	0.00	29.913 
10:25	58.9	58.9	58.9	60	45.0	0	2	248	0.00	29.913 
10:30	59.0	59.0	59.0	60	45.1	0	2	248	0.00	29.906 
10:35	59.0	59.0	59.0	61	45.6	0	2	315	0.00	29.906 
10:40	58.7	58.7	58.7	66	47.4	1	3	315	0.01	29.906 
10:45	58.1	58.1	58.1	69	48.0	0	2	315	0.00	29.911 
10:50	57.6	57.6	57.6	71	48.3	0	1	315	0.00	29.911 
10:55	57.6	57.6	57.6	72	48.6	0	1	315	0.00	29.911 
11:00	57.8	57.8	57.8	72	48.8	0	1	315	0.00	29.899 
11:05	58.0	58.0	58.0	73	49.4	0	1	315	0.00	29.899 
11:10	58.6	58.6	58.6	73	50.0	0	1	315	0.00	29.899 
11:15	59.3	59.3	59.3	72	50.3	0	3	315	0.00	29.898 
11:20	59.9	59.9	59.9	69	49.7	0	2	315	0.00	29.898 
11:25	60.5	60.5	60.5	68	49.9	0	2	292	0.00	29.898 
11:30	60.9	60.9	60.9	65	49.1	1	2	292	0.00	29.898 
11:35	61.3	61.3	61.3	66	49.8	0	2	225	0.00	29.898 
11:40	61.8	61.8	61.8	63	49.1	1	3	225	0.00	29.898 
11:45	62.4	62.4	62.4	65	50.5	0	3	225	0.00	29.894 
11:50	63.2	63.2	63.2	62	50.0	1	3	225	0.00	29.894 
11:55	64.2	64.2	64.2	59	49.6	2	4	225	0.00	29.894 
12:00	64.7	64.7	64.7	58	49.6	2	6	270	0.00	29.883 
12:05	65.3	65.3	65.3	57	49.7	2	5	270	0.00	29.883 
12:10	65.0	65.0	65.0	56	48.9	2	4	270	0.00	29.883 
12:15	64.8	64.8	64.8	57	49.2	1	2	270	0.00	29.888 
12:20	64.8	64.8	64.8	58	49.7	1	5	270	0.00	29.888 
12:25	65.3	65.3	65.3	57	49.7	1	3	270	0.00	29.888 
12:30	66.1	66.1	66.1	56	49.9	1	4	248	0.00	29.890 
12:35	66.9	66.9	66.9	56	50.7	1	2	248	0.00	29.890 
12:40	67.4	67.4	67.4	55	50.7	1	3	248	0.00	29.890 
12:45	67.9	67.9	67.9	53	50.1	1	3	292	0.00	29.890 
12:50	68.3	68.3	68.3	52	50.0	1	3	292	0.00	29.890 
12:55	68.6	68.6	68.6	53	50.8	0	2	292	0.00	29.890 
13:00	69.3	69.3	69.3	52	50.9	0	2	292	0.00	29.891 
13:05	69.1	69.1	69.1	52	50.7	1	3	292	0.00	29.891 
13:10	68.8	68.8	68.8	53	51.0	1	3	292	0.00	29.891 
13:15	69.3	69.3	69.3	52	50.9	1	5	292	0.00	29.882 
13:20	69.4	69.4	69.4	52	51.0	1	4	292	0.00	29.882 
13:25	69.4	69.4	69.4	51	50.5	1	3	292	0.00	29.882 
13:30	69.8	69.8	69.8	52	51.4	1	3	248	0.00	29.882 
13:35	69.9	69.9	69.9	50	50.4	1	2	270	0.00	29.882 
13:40	70.1	70.1	70.1	49	50.0	2	5	270	0.00	29.882 
13:45	70.1	70.1	70.1	50	50.6	1	4	292	0.00	29.882 
13:50	70.4	70.4	70.4	50	50.9	1	4	292	0.00	29.882 
13:55	70.8	70.8	70.8	47	49.6	1	3	270	0.00	29.882 
14:00	70.6	70.6	70.6	46	48.8	2	4	292	0.00	29.879 
14:05	70.6	70.6	70.6	47	49.4	2	4	292	0.00	29.879 
14:10	70.9	70.9	70.9	46	49.1	0	4	292	0.00	29.879 
14:15	71.3	71.3	71.3	46	49.4	1	4	292	0.00	29.876 
14:20	71.5	71.5	71.5	43	47.8	2	5	292	0.00	29.876 
14:25	71.3	71.3	71.3	44	48.2	1	4	248	0.00	29.876 
14:30	71.6	71.6	71.6	44	48.5	1	4	292	0.00	29.871 
14:35	72.0	72.0	72.0	43	48.3	1	3	270	0.00	29.871 
14:40	72.7	72.7	72.7	43	48.9	1	4	270	0.00	29.871 
14:45	72.8	72.8	72.8	39	46.4	2	4	248	0.00	29.867 
14:50	72.1	72.1	72.1	39	45.8	2	4	292	0.00	29.867 
14:55	71.8	71.8	71.8	38	44.8	3	5	270	0.00	29.867 
15:00	71.8	71.8	71.8	40	46.2	2	4	270	0.00	29.861 
15:05	71.8	71.8	71.8	40	46.2	1	3	270	0.00	29.861 
15:10	71.5	71.5	71.5	39	45.2	1	5	270	0.00	29.861 
15:15	71.1	71.1	71.1	40	45.5	1	4	270	0.00	29.861 
15:20	70.9	70.9	70.9	42	46.6	1	4	270	0.00	29.861 
15:25	71.1	71.1	71.1	41	46.2	0	3	270	0.00	29.861 
15:30	71.5	71.5	71.5	42	47.2	1	4	315	0.00	29.858 
15:35	72.1	72.1	72.1	42	47.7	1	2	315	0.00	29.858 
15:40	72.1	72.1	72.1	40	46.4	1	4	315	0.00	29.858 
15:45	72.1	72.1	72.1	41	47.1	1	3	270	0.00	29.858 
15:50	72.5	72.5	72.5	39	46.1	1	4	270	0.00	29.858 
15:55	72.5	72.5	72.5	41	47.4	1	3	270	0.00	29.858 
16:00	73.0	73.0	73.0	38	45.9	1	4	292	0.00	29.857 
16:05	73.0	73.0	73.0	40	47.2	1	3	338	0.00	29.857 
16:10	72.7	72.7	72.7	38	45.6	1	4	270	0.00	29.857 
16:15	72.5	72.5	72.5	38	45.4	1	3	248	0.00	29.855 
16:20	72.1	72.1	72.1	39	45.8	1	3	248	0.00	29.855 
16:25	72.0	72.0	72.0	37	44.3	1	4	248	0.00	29.855 
16:30	72.0	72.0	72.0	38	45.0	1	3	248	0.00	29.855 
16:35	72.0	72.0	72.0	39	45.7	1	6	248	0.00	29.855 
16:40	71.8	71.8	71.8	37	44.1	1	3	292	0.00	29.855 
16:45	71.6	71.6	71.6	39	45.3	1	4	292	0.00	29.851 
16:50	71.5	71.5	71.5	39	45.2	2	4	292	0.00	29.851 
16:55	71.5	71.5	71.5	38	44.5	1	3	292	0.00	29.851 
17:00	71.5	71.5	71.5	39	45.2	1	4	292	0.00	29.846 
17:05	71.5	71.5	71.5	39	45.2	1	2	292	0.00	29.846 
17:10	71.5	71.5	71.5	38	44.5	1	3	292	0.00	29.846 
17:15	71.5	71.5	71.5	39	45.2	1	3	292	0.00	29.849 
17:20	71.3	71.3	71.3	39	45.1	1	3	315	0.00	29.849 
17:25	70.9	70.9	70.9	38	44.0	2	4	315	0.00	29.849 
17:30	70.8	70.8	70.8	38	43.9	1	3	292	0.00	29.850 
17:35	70.8	70.8	70.8	39	44.6	1	3	292	0.00	29.850 
17:40	70.8	70.8	70.8	39	44.6	0	2	292	0.00	29.850 
17:45	70.8	70.8	70.8	39	44.6	1	3	292	0.00	29.855 
17:50	70.4	70.4	70.4	38	43.6	1	3	292	0.00	29.855 
17:55	70.3	70.3	70.3	38	43.5	1	3	292	0.00	29.855 
18:00	70.1	70.1	70.1	37	42.6	2	4	292	0.00	29.859 
18:05	69.9	69.9	69.9	37	42.4	2	3	270	0.00	29.859 
18:10	69.9	69.9	69.9	36	41.7	2	4	292	0.00	29.859 
18:15	69.9	69.9	69.9	37	42.4	1	3	292	0.00	29.860 
18:20	69.8	69.8	69.8	35	40.9	1	3	292	0.00	29.860 
18:25	69.8	69.8	69.8	36	41.6	1	3	292	0.00	29.860 
18:30	69.6	69.6	69.6	35	40.7	1	4	292	0.00	29.861 
18:35	69.6	69.6	69.6	35	40.7	1	3	292	0.00	29.861 
18:40	69.6	69.6	69.6	35	40.7	1	3	292	0.00	29.861 
18:45	69.4	69.4	69.4	35	40.6	1	2	292	0.00	29.863 
18:50	69.4	69.4	69.4	35	40.6	1	3	292	0.00	29.863 
18:55	69.3	69.3	69.3	36	41.2	0	2	292	0.00	29.863 
19:00	69.1	69.1	69.1	37	41.7	0	1	292	0.00	29.873 
19:05	68.9	68.9	68.9	38	42.2	0	2	292	0.00	29.873 
19:10	68.8	68.8	68.8	39	42.8	0	0	---	0.00	29.873 
19:15	68.6	68.6	68.6	38	42.0	0	0	---	0.00	29.874 
19:20	68.3	68.3	68.3	39	42.4	0	0	---	0.00	29.874 
19:25	67.8	67.8	67.8	38	41.3	0	0	---	0.00	29.874 
19:30	67.6	67.6	67.6	39	41.8	0	0	---	0.00	29.872 
19:35	67.3	67.3	67.3	39	41.5	0	0	---	0.00	29.872 
19:40	66.9	66.9	66.9	40	41.8	0	0	---	0.00	29.872 
19:45	66.6	66.6	66.6	40	41.5	0	0	---	0.00	29.871 
19:50	66.4	66.4	66.4	40	41.3	0	0	---	0.00	29.871 
19:55	66.3	66.3	66.3	40	41.2	0	0	---	0.00	29.871 
20:00	66.0	66.0	66.0	40	41.0	0	0	---	0.00	29.877 
20:05	65.8	65.8	65.8	43	42.7	0	1	292	0.00	29.877 
20:10	65.3	65.3	65.3	43	42.2	0	0	---	0.00	29.877 
20:15	65.0	65.0	65.0	46	43.7	0	1	292	0.00	29.886 
20:20	64.7	64.7	64.7	46	43.4	0	1	292	0.00	29.886 
20:25	64.5	64.5	64.5	46	43.3	0	0	---	0.00	29.886 
20:30	64.2	64.2	64.2	46	43.0	0	1	292	0.00	29.892 
20:35	63.9	63.9	63.9	45	42.1	0	1	292	0.00	29.892 
20:40	63.7	63.7	63.7	46	42.5	0	0	---	0.00	29.892 
20:45	63.4	63.4	63.4	47	42.8	0	0	---	0.00	29.898 
20:50	63.2	63.2	63.2	47	42.6	0	0	---	0.00	29.898 
20:55	63.1	63.1	63.1	48	43.1	0	0	---	0.00	29.898 
21:00	62.7	62.7	62.7	48	42.7	0	0	---	0.00	29.905 
21:05	62.6	62.6	62.6	49	43.2	0	0	---	0.00	29.905 
21:10	62.4	62.4	62.4	49	43.0	0	0	---	0.00	29.905 
21:15	62.1	62.1	62.1	50	43.2	0	0	---	0.00	29.908 
21:20	62.0	62.0	62.0	53	44.7	0	0	---	0.00	29.908 
21:25	61.6	61.6	61.6	53	44.3	0	0	---	0.00	29.908 
21:30	61.5	61.5	61.5	54	44.7	0	0	---	0.00	29.908 
21:35	61.2	61.2	61.2	54	44.4	0	0	---	0.00	29.908 
21:40	61.0	61.0	61.0	54	44.2	0	0	---	0.00	29.908 
21:45	60.9	60.9	60.9	55	44.6	0	0	---	0.00	29.908 
21:50	60.7	60.7	60.7	55	44.4	0	0	---	0.00	29.908 
21:55	60.5	60.5	60.5	55	44.2	0	0	---	0.00	29.908 
22:00	60.2	60.2	60.2	56	44.4	0	0	---	0.00	29.909 
22:05	60.1	60.1	60.1	58	45.3	0	0	---	0.00	29.909 
22:10	59.6	59.6	59.6	59	45.3	0	0	---	0.00	29.909 
22:15	59.3	59.3	59.3	59	45.0	0	0	---	0.00	29.912 
22:20	58.9	58.9	58.9	61	45.5	0	0	---	0.00	29.912 
22:25	58.6	58.6	58.6	61	45.2	0	0	---	0.00	29.912 
22:30	58.1	58.1	58.1	62	45.1	0	0	---	0.00	29.915 
22:35	57.6	57.6	57.6	63	45.1	0	0	---	0.00	29.915 
22:40	57.3	57.3	57.3	63	44.8	0	0	---	0.00	29.915 
22:45	56.9	56.9	56.9	64	44.8	0	0	---	0.00	29.917 
22:50	56.6	56.6	56.6	65	45.0	0	0	---	0.00	29.917 
22:55	56.2	56.2	56.2	66	45.0	0	0	---	0.00	29.917 
23:00	55.7	55.7	55.7	67	44.9	0	0	---	0.00	29.917 
23:05	55.4	55.4	55.4	68	45.0	0	0	---	0.00	29.917 
23:10	55.1	55.1	55.1	69	45.1	0	0	---	0.00	29.917 
23:15	54.8	54.8	54.8	69	44.8	0	0	---	0.00	29.911 
23:20	54.4	54.4	54.4	69	44.4	0	0	---	0.00	29.911 
23:25	54.2	54.2	54.2	71	45.0	0	0	---	0.00	29.911 
23:30	53.8	53.8	53.8	72	45.0	0	0	---	0.00	29.913 
23:35	53.5	53.5	53.5	73	45.1	0	0	---	0.00	29.913 
23:40	53.3	53.3	53.3	74	45.2	0	0	---	0.00	29.913 
23:45	53.1	53.1	53.1	75	45.4	0	1	292	0.00	29.914 
23:50	52.9	52.9	52.9	75	45.2	0	0	---	0.00	29.914 
23:55	52.8	52.8	52.8	76	45.4	0	0	---	0.00	29.914 

CoCoRaHS
IN-AL-39
A2 Web Hosting
Creative Commons License
GoDaddy
search engine by freefind advanced

loaded 2018-11-13 17:43:26 • last modified 2010-11-18 10:43:29
Privacy PolicyDisclaimer
• wx.awcolley.com is powered by PmWiki v.2002016 •
• all content (unless otherwise noted) © 2018 A W Colley